Time;durP1;ratioP1;P1;durP2;ratioP2;P2;SDS_P1;SDS_P2;PMS_P1;PMS_P2;Temp;Humidity;BMP_temperature;BMP_pressure;BME280_temperature;BME280_humidity;BME280_pressure;Samples;Min_cycle;Max_cycle;Signal;HPM_P1;HPM_P2
2021/12/11 00:02:06;;;;;;;5.22;2.13;;;2.10;99.90;;;;;;4965261;28;20047;-63
2021/12/11 00:04:35;;;;;;;3.20;2.75;;;2.10;99.90;;;;;;4969089;28;20792;-63
2021/12/11 00:07:03;;;;;;;3.60;2.55;;;2.10;99.90;;;;;;4958747;28;20035;-63
2021/12/11 00:09:31;;;;;;;3.33;2.03;;;2.10;99.90;;;;;;4962661;28;20123;-63
2021/12/11 00:12:03;;;;;;;2.03;1.70;;;2.10;99.90;;;;;;4974342;28;20041;-63
2021/12/11 00:14:32;;;;;;;2.08;1.90;;;2.10;99.90;;;;;;4967329;28;20123;-63
2021/12/11 00:16:58;;;;;;;3.78;3.38;;;2.10;99.90;;;;;;4963321;28;20050;-63
2021/12/11 00:19:30;;;;;;;2.05;1.90;;;2.10;99.90;;;;;;4970424;28;20067;-63
2021/12/11 00:22:13;;;;;;;3.10;1.77;;;2.20;99.90;;;;;;4969802;28;20109;-62
2021/12/11 00:24:41;;;;;;;4.28;2.08;;;2.20;99.90;;;;;;4973811;28;20049;-63
2021/12/11 00:27:15;;;;;;;3.47;2.05;;;2.20;99.90;;;;;;4970344;28;20035;-63
2021/12/11 00:29:41;;;;;;;2.00;1.85;;;2.10;99.90;;;;;;4971077;28;20092;-63
2021/12/11 00:32:09;;;;;;;3.85;2.15;;;2.10;99.90;;;;;;4963376;28;20053;-63
2021/12/11 00:34:39;;;;;;;2.33;2.13;;;2.20;99.90;;;;;;4967177;28;20038;-63
2021/12/11 00:37:07;;;;;;;4.43;1.80;;;2.10;99.90;;;;;;4971656;28;20019;-64
2021/12/11 00:39:38;;;;;;;;;;;2.20;99.90;;;;;;4968061;28;20042;-64
2021/12/11 00:42:09;;;;;;;1.60;1.50;;;2.20;99.90;;;;;;4966411;28;20391;-64
2021/12/11 00:44:42;;;;;;;3.67;3.05;;;2.20;99.90;;;;;;4967671;28;20058;-64
2021/12/11 00:47:21;;;;;;;3.03;2.30;;;2.20;99.90;;;;;;4966655;28;20030;-64
2021/12/11 00:50:08;;;;;;;3.70;2.80;;;2.20;99.90;;;;;;4950464;28;20354;-64
2021/12/11 00:52:46;;;;;;;1.95;1.85;;;2.20;99.90;;;;;;4973138;28;20389;-64
2021/12/11 00:55:26;;;;;;;7.30;4.93;;;2.20;99.90;;;;;;4972872;28;20027;-64
2021/12/11 00:58:28;;;;;;;4.13;2.00;;;2.20;99.90;;;;;;4964740;28;20111;-64
2021/12/11 01:00:57;;;;;;;5.18;1.88;;;2.20;99.90;;;;;;4953518;28;20064;-64
2021/12/11 01:03:30;;;;;;;2.30;1.83;;;2.20;99.90;;;;;;4961952;28;20034;-64
2021/12/11 01:05:58;;;;;;;3.55;2.30;;;2.20;99.90;;;;;;4971916;28;20033;-64
2021/12/11 01:08:39;;;;;;;2.50;1.92;;;2.10;99.90;;;;;;4965067;28;20059;-64
2021/12/11 01:11:17;;;;;;;2.78;1.55;;;2.20;99.90;;;;;;4968420;28;20039;-64
2021/12/11 01:13:48;;;;;;;2.20;1.60;;;2.20;99.90;;;;;;4972617;28;21208;-64
2021/12/11 01:16:15;;;;;;;3.45;1.77;;;2.20;99.90;;;;;;4965676;28;20067;-64
2021/12/11 01:18:48;;;;;;;1.85;1.70;;;2.20;99.90;;;;;;4963122;28;20035;-64
2021/12/11 01:21:42;;;;;;;1.55;1.45;;;2.20;99.90;;;;;;4963721;28;20129;-64
2021/12/11 01:24:26;;;;;;;1.52;1.48;;;2.20;99.90;;;;;;4965751;28;20121;-64
2021/12/11 01:26:53;;;;;;;1.70;1.58;;;2.20;99.90;;;;;;4966291;28;20027;-63
2021/12/11 01:29:21;;;;;;;1.55;1.45;;;2.10;99.90;;;;;;4965073;28;20065;-63
2021/12/11 01:31:49;;;;;;;1.85;1.67;;;2.20;99.90;;;;;;4964185;28;20737;-63
2021/12/11 01:34:15;;;;;;;1.17;1.13;;;2.20;99.90;;;;;;4964380;28;20039;-63
2021/12/11 01:36:42;;;;;;;1.83;1.60;;;2.20;99.90;;;;;;4961123;28;20124;-64
2021/12/11 01:39:12;;;;;;;1.80;1.33;;;2.20;99.90;;;;;;4966065;28;20054;-64
2021/12/11 01:41:39;;;;;;;1.35;1.30;;;2.10;99.90;;;;;;4968107;28;20046;-63
2021/12/11 01:44:10;;;;;;;1.23;1.23;;;2.20;99.90;;;;;;4960619;28;20035;-63
2021/12/11 01:46:37;;;;;;;2.15;1.40;;;2.20;99.90;;;;;;4961125;28;20114;-63
2021/12/11 01:49:11;;;;;;;1.33;1.15;;;2.20;99.90;;;;;;4964358;28;20038;-63
2021/12/11 01:52:12;;;;;;;1.20;1.10;;;2.20;99.90;;;;;;4968816;28;20141;-64
2021/12/11 01:54:43;;;;;;;1.38;1.38;;;2.20;99.90;;;;;;4955801;28;20038;-63
2021/12/11 01:57:15;;;;;;;1.77;1.33;;;2.20;99.90;;;;;;4970362;28;20076;-63
2021/12/11 01:59:46;;;;;;;1.63;1.27;;;2.20;99.90;;;;;;4966533;28;20482;-63
2021/12/11 02:02:21;;;;;;;2.45;1.35;;;2.10;99.90;;;;;;4969265;28;20049;-63
2021/12/11 02:04:49;;;;;;;1.50;1.40;;;2.20;99.90;;;;;;4991574;23;20082;-63
2021/12/11 02:07:22;;;;;;;1.70;1.58;;;2.20;99.90;;;;;;4966561;28;20035;-63
2021/12/11 02:09:57;;;;;;;1.20;1.20;;;2.20;99.90;;;;;;4962582;28;20027;-63
2021/12/11 02:12:29;;;;;;;1.35;1.35;;;2.20;99.90;;;;;;4959249;28;20404;-64
2021/12/11 02:14:56;;;;;;;1.80;1.70;;;2.20;99.90;;;;;;4943927;28;20105;-64
2021/12/11 02:17:30;;;;;;;1.55;1.40;;;2.20;99.90;;;;;;4967876;28;20038;-64
2021/12/11 02:19:59;;;;;;;2.53;1.23;;;2.20;99.90;;;;;;4962932;28;20457;-64
2021/12/11 02:22:32;;;;;;;2.15;1.40;;;2.20;99.90;;;;;;4967525;28;20038;-64
2021/12/11 02:25:04;;;;;;;3.65;1.52;;;2.20;99.90;;;;;;4959443;28;20045;-65
2021/12/11 02:27:35;;;;;;;1.35;1.27;;;2.20;99.90;;;;;;4967170;28;20117;-64
2021/12/11 02:30:20;;;;;;;1.48;1.38;;;2.20;99.90;;;;;;4958948;28;20069;-64
2021/12/11 02:33:07;;;;;;;1.67;1.58;;;2.20;99.90;;;;;;4974490;28;21566;-64
2021/12/11 02:35:38;;;;;;;2.97;1.67;;;2.20;99.90;;;;;;4984573;28;20034;-64
2021/12/11 02:38:13;;;;;;;2.60;1.70;;;2.20;99.90;;;;;;4987621;28;20026;-64
2021/12/11 02:40:42;;;;;;;2.90;1.40;;;2.20;99.90;;;;;;4987165;28;20060;-64
2021/12/11 02:43:33;;;;;;;1.35;1.25;;;2.20;99.90;;;;;;4980804;28;20045;-64
2021/12/11 02:46:10;;;;;;;1.80;1.70;;;2.20;99.90;;;;;;4969691;28;20045;-64
2021/12/11 02:48:43;;;;;;;1.73;1.63;;;2.20;99.90;;;;;;4988449;28;20464;-64
2021/12/11 02:51:16;;;;;;;1.20;1.15;;;2.20;99.90;;;;;;4982658;28;20021;-64
2021/12/11 02:53:47;;;;;;;2.80;1.50;;;2.20;99.90;;;;;;4980561;28;20122;-64
2021/12/11 02:56:18;;;;;;;2.88;1.80;;;2.20;99.90;;;;;;4974079;28;20101;-64
2021/12/11 02:58:48;;;;;;;1.83;1.73;;;2.20;99.90;;;;;;4988463;28;20423;-64
2021/12/11 03:01:40;;;;;;;1.63;1.52;;;2.20;99.90;;;;;;4988757;28;20054;-64
2021/12/11 03:04:18;;;;;;;1.73;1.35;;;2.20;99.90;;;;;;4978961;28;20165;-64
2021/12/11 03:06:46;;;;;;;3.47;1.80;;;2.20;99.90;;;;;;4992852;28;20030;-63
2021/12/11 03:09:16;;;;;;;2.10;1.42;;;2.20;99.90;;;;;;4988056;28;20061;-64
2021/12/11 03:11:42;;;;;;;1.50;1.48;;;2.20;99.90;;;;;;4982964;28;20072;-64
2021/12/11 03:14:12;;;;;;;1.58;1.48;;;2.20;99.90;;;;;;4984304;28;20030;-64
2021/12/11 03:16:39;;;;;;;1.60;1.50;;;2.20;99.90;;;;;;4983389;28;20026;-63
2021/12/11 03:19:08;;;;;;;4.60;1.60;;;2.20;99.90;;;;;;4981457;28;20031;-63
2021/12/11 03:21:35;;;;;;;2.13;1.90;;;2.20;99.90;;;;;;4982311;28;20101;-64
2021/12/11 03:24:01;;;;;;;1.95;1.85;;;2.20;99.90;;;;;;4986144;28;20733;-64
2021/12/11 03:26:26;;;;;;;2.33;1.40;;;2.20;99.90;;;;;;4984683;28;20065;-64
2021/12/11 03:28:53;;;;;;;1.35;1.20;;;2.30;99.90;;;;;;4987639;28;20056;-64
2021/12/11 03:31:19;;;;;;;1.48;1.38;;;2.20;99.90;;;;;;4981181;28;20050;-64
2021/12/11 03:33:49;;;;;;;1.67;1.67;;;2.20;99.90;;;;;;4985963;28;20022;-63
2021/12/11 03:36:18;;;;;;;2.55;1.40;;;2.20;99.90;;;;;;4979882;28;20030;-63
2021/12/11 03:38:48;;;;;;;1.70;1.60;;;2.20;99.90;;;;;;4981295;28;20856;-64
2021/12/11 03:41:14;;;;;;;2.33;1.90;;;2.20;99.90;;;;;;4979897;28;20031;-64
2021/12/11 03:43:40;;;;;;;1.48;1.45;;;2.20;99.90;;;;;;4977209;28;20046;-64
2021/12/11 03:46:08;;;;;;;1.45;1.35;;;2.20;99.90;;;;;;4987143;28;20070;-63
2021/12/11 03:48:44;;;;;;;1.60;1.50;;;2.20;99.90;;;;;;4988682;28;20046;-64
2021/12/11 03:51:13;;;;;;;2.72;1.58;;;2.20;99.90;;;;;;4985649;28;20048;-63
2021/12/11 03:53:40;;;;;;;1.70;1.60;;;2.20;99.90;;;;;;4987961;28;20042;-63
2021/12/11 03:56:09;;;;;;;1.95;1.67;;;2.20;99.90;;;;;;4987170;28;20133;-63
2021/12/11 03:58:36;;;;;;;4.00;1.95;;;2.20;99.90;;;;;;4991402;28;20030;-63
2021/12/11 04:01:18;;;;;;;2.13;1.73;;;2.10;99.90;;;;;;4985023;28;20046;-63
2021/12/11 04:03:53;;;;;;;2.15;1.98;;;2.20;99.90;;;;;;4989836;28;20082;-63
2021/12/11 04:06:21;;;;;;;1.52;1.42;;;2.20;99.90;;;;;;4987842;28;20073;-63
2021/12/11 04:08:47;;;;;;;1.17;1.17;;;2.20;99.90;;;;;;4991312;28;20033;-63
2021/12/11 04:11:24;;;;;;;2.40;1.58;;;2.20;99.90;;;;;;4993910;28;20355;-64
2021/12/11 04:13:53;;;;;;;3.15;1.63;;;2.10;99.90;;;;;;4989060;28;20397;-63
2021/12/11 04:16:19;;;;;;;2.03;1.65;;;2.10;99.90;;;;;;4986359;28;20049;-63
2021/12/11 04:18:45;;;;;;;4.43;1.73;;;2.10;99.90;;;;;;4990255;28;20030;-64
2021/12/11 04:21:11;;;;;;;3.05;1.83;;;2.20;99.90;;;;;;4988737;28;20069;-64
2021/12/11 04:23:38;;;;;;;1.95;1.35;;;2.10;99.90;;;;;;4986259;28;20097;-63
2021/12/11 04:26:05;;;;;;;1.50;1.40;;;2.10;99.90;;;;;;4985021;28;20038;-63
2021/12/11 04:28:35;;;;;;;1.60;1.50;;;2.20;99.90;;;;;;4986792;28;20045;-64
2021/12/11 04:31:06;;;;;;;2.83;1.67;;;2.10;99.90;;;;;;4990175;28;20132;-64
2021/12/11 04:33:37;;;;;;;1.77;1.67;;;2.10;99.90;;;;;;4982300;28;20062;-64
2021/12/11 04:36:09;;;;;;;2.30;1.38;;;2.10;99.90;;;;;;4981409;28;20034;-64
2021/12/11 04:38:35;;;;;;;1.65;1.60;;;2.10;99.90;;;;;;4991998;28;20030;-64
2021/12/11 04:41:02;;;;;;;3.90;1.85;;;2.10;99.90;;;;;;4983540;28;20034;-63
2021/12/11 04:43:28;;;;;;;1.80;1.70;;;2.10;99.90;;;;;;4984144;28;20034;-64
2021/12/11 04:46:02;;;;;;;3.65;1.65;;;2.10;99.90;;;;;;4986428;28;20380;-63
2021/12/11 04:49:10;;;;;;;1.60;1.50;;;2.10;99.90;;;;;;4985451;28;20045;-64
2021/12/11 04:51:50;;;;;;;1.73;1.60;;;2.10;99.90;;;;;;4984697;28;20088;-63
2021/12/11 04:54:47;;;;;;;1.70;1.60;;;2.10;99.90;;;;;;4981050;28;20081;-63
2021/12/11 04:57:51;;;;;;;2.70;1.80;;;2.10;99.90;;;;;;4994618;28;20038;-63
2021/12/11 05:00:28;;;;;;;1.65;1.27;;;2.10;99.90;;;;;;4987099;28;20132;-64
2021/12/11 05:05:53;;;;;;;1.38;1.35;;;2.00;99.90;;;;;;4975302;28;20055;-63
2021/12/11 05:13:17;;;;;;;1.38;1.35;;;2.00;99.90;;;;;;4964960;28;20042;-63
2021/12/11 05:15:46;;;;;;;2.15;1.50;;;2.00;99.90;;;;;;4962706;28;20027;-63
2021/12/11 05:18:15;;;;;;;1.70;1.60;;;2.00;99.90;;;;;;4967815;28;20034;-63
2021/12/11 05:20:44;;;;;;;2.17;1.80;;;2.00;99.90;;;;;;4967690;28;20385;-63
2021/12/11 05:23:10;;;;;;;1.30;1.30;;;2.00;99.90;;;;;;4963022;28;20050;-63
2021/12/11 05:25:35;;;;;;;3.17;1.60;;;2.00;99.90;;;;;;4965688;28;20033;-63
2021/12/11 05:28:03;;;;;;;3.75;2.05;;;2.00;99.90;;;;;;4962341;28;20031;-63
2021/12/11 05:30:35;;;;;;;1.50;1.23;;;2.00;99.90;;;;;;4961377;28;20383;-63
2021/12/11 05:33:01;;;;;;;1.52;1.42;;;2.00;99.90;;;;;;4965027;28;20057;-63
2021/12/11 05:35:30;;;;;;;1.70;1.30;;;2.00;99.90;;;;;;4965414;28;20035;-63
2021/12/11 05:37:56;;;;;;;;;;;2.00;99.90;;;;;;4967130;28;20093;-63
2021/12/11 05:40:23;;;;;;;1.70;1.60;;;1.90;99.90;;;;;;4965748;28;19913;-63
2021/12/11 05:42:50;;;;;;;1.25;1.25;;;1.90;99.90;;;;;;4959568;28;20038;-63
2021/12/11 05:45:16;;;;;;;2.75;1.73;;;1.90;99.90;;;;;;4969176;28;20081;-63
2021/12/11 05:47:42;;;;;;;2.17;1.90;;;1.90;99.90;;;;;;4961428;28;20027;-63
2021/12/11 05:50:13;;;;;;;1.85;1.65;;;1.90;99.90;;;;;;4965253;28;20161;-63
2021/12/11 05:52:39;;;;;;;4.30;1.70;;;2.00;99.90;;;;;;4967087;28;20400;-63
2021/12/11 05:55:08;;;;;;;2.15;1.70;;;1.90;99.90;;;;;;4971090;28;20042;-63
2021/12/11 05:57:36;;;;;;;1.73;1.63;;;1.90;99.90;;;;;;4963500;28;20038;-63
2021/12/11 06:00:08;;;;;;;1.48;1.38;;;1.90;99.90;;;;;;4971111;28;20114;-63
2021/12/11 06:02:35;;;;;;;1.80;1.70;;;1.90;99.90;;;;;;4970509;28;20047;-63
2021/12/11 06:05:01;;;;;;;1.50;1.40;;;1.90;99.90;;;;;;4967006;28;20110;-63
2021/12/11 06:07:29;;;;;;;2.65;1.60;;;1.90;99.90;;;;;;4962489;28;20100;-63
2021/12/11 06:10:10;;;;;;;2.13;1.80;;;2.00;99.90;;;;;;4969685;28;20026;-64
2021/12/11 06:12:35;;;;;;;1.27;1.27;;;1.90;99.90;;;;;;4967401;28;20042;-63
2021/12/11 06:15:02;;;;;;;2.45;1.33;;;1.90;99.90;;;;;;4965827;28;20046;-63
2021/12/11 06:17:30;;;;;;;1.40;1.30;;;1.80;99.90;;;;;;4965838;28;20042;-63
2021/12/11 06:19:57;;;;;;;1.60;1.10;;;1.80;99.90;;;;;;4960774;28;20042;-63
2021/12/11 06:22:27;;;;;;;0.93;0.93;;;1.80;99.90;;;;;;4968491;28;20053;-63
2021/12/11 06:24:55;;;;;;;1.15;1.15;;;1.70;99.90;;;;;;4957928;28;20074;-63
2021/12/11 06:27:22;;;;;;;1.27;1.17;;;1.70;99.90;;;;;;4962723;28;20045;-63
2021/12/11 06:29:48;;;;;;;1.00;1.00;;;1.70;99.90;;;;;;4969332;28;20023;-64
2021/12/11 06:32:14;;;;;;;1.17;1.15;;;1.70;99.90;;;;;;4961765;28;20050;-64
2021/12/11 06:34:40;;;;;;;1.42;1.35;;;1.70;99.90;;;;;;4966796;28;20034;-63
2021/12/11 06:37:08;;;;;;;1.30;1.15;;;1.70;99.90;;;;;;4964661;28;20035;-63
2021/12/11 06:39:34;;;;;;;1.50;1.48;;;1.60;99.90;;;;;;4969254;28;20027;-64
2021/12/11 06:42:02;;;;;;;2.10;1.20;;;1.70;99.90;;;;;;4968250;28;20050;-63
2021/12/11 06:44:28;;;;;;;1.10;1.10;;;1.60;99.90;;;;;;4964186;28;20046;-64
2021/12/11 06:46:59;;;;;;;0.80;0.80;;;1.70;99.90;;;;;;4966405;28;20030;-64
2021/12/11 06:49:29;;;;;;;1.27;1.17;;;1.70;99.90;;;;;;4961614;28;20027;-64
2021/12/11 06:51:55;;;;;;;1.13;1.00;;;1.70;99.90;;;;;;4963959;28;20620;-64
2021/12/11 06:54:22;;;;;;;1.10;1.10;;;1.70;99.90;;;;;;4962523;28;20034;-64
2021/12/11 06:56:48;;;;;;;1.10;1.10;;;1.70;99.90;;;;;;4964132;28;20037;-63
2021/12/11 06:59:14;;;;;;;1.17;1.10;;;1.70;99.90;;;;;;4968035;28;20046;-63
2021/12/11 07:01:41;;;;;;;1.00;1.00;;;1.70;99.90;;;;;;4962800;28;20054;-63
2021/12/11 07:04:09;;;;;;;0.90;0.90;;;1.70;99.90;;;;;;4964843;28;20057;-64
2021/12/11 07:06:39;;;;;;;0.98;0.98;;;1.70;99.90;;;;;;4969516;28;20023;-64
2021/12/11 07:09:07;;;;;;;1.50;1.40;;;1.70;99.90;;;;;;4965917;28;20035;-63
2021/12/11 07:11:34;;;;;;;1.70;1.15;;;1.70;99.90;;;;;;4968941;28;20031;-63
2021/12/11 07:13:59;;;;;;;1.27;1.08;;;1.70;99.90;;;;;;4967022;28;20050;-63
2021/12/11 07:16:25;;;;;;;1.13;1.13;;;1.70;99.90;;;;;;4971195;28;20035;-63
2021/12/11 07:18:51;;;;;;;1.08;1.08;;;1.70;99.90;;;;;;4970038;28;20389;-63
2021/12/11 07:21:17;;;;;;;0.90;0.90;;;1.70;99.90;;;;;;4969737;28;20376;-62
2021/12/11 07:23:47;;;;;;;1.00;1.00;;;1.70;99.90;;;;;;4972800;28;20042;-64
2021/12/11 07:26:18;;;;;;;1.13;1.13;;;1.70;99.90;;;;;;4968290;28;20022;-64
2021/12/11 07:28:48;;;;;;;3.20;1.00;;;1.70;99.90;;;;;;4969013;28;20465;-64
2021/12/11 07:31:15;;;;;;;1.40;1.30;;;1.70;99.90;;;;;;4974623;28;20042;-64
2021/12/11 07:33:44;;;;;;;1.00;1.00;;;1.70;99.90;;;;;;4964821;28;20039;-64
2021/12/11 07:36:10;;;;;;;1.02;1.02;;;1.70;99.90;;;;;;4961923;28;20022;-64
2021/12/11 07:38:36;;;;;;;1.10;1.08;;;1.70;99.90;;;;;;4964529;28;20062;-63
2021/12/11 07:41:06;;;;;;;1.60;1.35;;;1.70;99.90;;;;;;4970628;28;20037;-63
2021/12/11 07:43:32;;;;;;;1.50;1.40;;;1.70;99.90;;;;;;4966207;28;20066;-63
2021/12/11 07:45:59;;;;;;;1.08;1.08;;;1.70;99.90;;;;;;4966866;28;20042;-63
2021/12/11 07:48:25;;;;;;;1.50;1.40;;;1.70;99.90;;;;;;4972886;28;20031;-64
2021/12/11 07:50:51;;;;;;;1.20;1.20;;;1.70;99.90;;;;;;4970075;28;20413;-63
2021/12/11 07:53:19;;;;;;;1.80;1.70;;;1.70;99.90;;;;;;4968089;28;20035;-63
2021/12/11 07:55:45;;;;;;;1.83;1.73;;;1.70;99.90;;;;;;4968642;28;20496;-63
2021/12/11 07:58:11;;;;;;;2.55;1.67;;;1.70;99.90;;;;;;4970383;28;20157;-63
2021/12/11 08:00:40;;;;;;;1.90;1.40;;;1.70;99.90;;;;;;4968042;28;20161;-64
2021/12/11 08:03:09;;;;;;;1.70;1.60;;;1.70;99.90;;;;;;4967372;28;20050;-64
2021/12/11 08:05:35;;;;;;;1.50;1.40;;;1.70;99.90;;;;;;4974284;28;20062;-64
2021/12/11 08:08:05;;;;;;;1.80;1.70;;;1.70;99.90;;;;;;4976378;28;20409;-64
2021/12/11 08:10:31;;;;;;;2.10;2.00;;;1.70;99.90;;;;;;4961220;28;20039;-64
2021/12/11 08:12:58;;;;;;;3.60;1.95;;;1.70;99.90;;;;;;4968251;28;20046;-64
2021/12/11 08:15:24;;;;;;;2.33;2.20;;;1.70;99.90;;;;;;4966476;28;20109;-63
2021/12/11 08:17:54;;;;;;;1.80;1.70;;;1.70;99.90;;;;;;4964216;28;20041;-66
2021/12/11 08:20:22;;;;;;;2.22;1.80;;;1.70;99.90;;;;;;4966042;28;20034;-63
2021/12/11 08:22:48;;;;;;;2.60;2.25;;;1.70;99.90;;;;;;4966710;28;20054;-63
2021/12/11 08:25:14;;;;;;;2.35;2.03;;;1.70;99.90;;;;;;4972670;28;20039;-63
2021/12/11 08:27:41;;;;;;;2.20;2.00;;;1.70;99.90;;;;;;4949999;28;20038;-63
2021/12/11 08:30:08;;;;;;;1.85;1.73;;;1.70;99.90;;;;;;4969079;28;20478;-64
2021/12/11 08:32:34;;;;;;;2.40;2.17;;;1.70;99.90;;;;;;4972245;28;20050;-63
2021/12/11 08:35:00;;;;;;;1.85;1.73;;;1.70;99.90;;;;;;4968039;28;20031;-64
2021/12/11 08:37:26;;;;;;;4.07;2.35;;;1.80;99.90;;;;;;4980037;28;20073;-64
2021/12/11 08:39:53;;;;;;;2.15;1.95;;;1.70;99.90;;;;;;4971244;28;20597;-64
2021/12/11 08:42:23;;;;;;;2.28;1.63;;;1.80;99.90;;;;;;4967256;28;20031;-64
2021/12/11 08:44:53;;;;;;;2.83;2.05;;;1.80;99.90;;;;;;4968350;28;20031;-65
2021/12/11 08:47:21;;;;;;;2.78;2.45;;;1.80;99.90;;;;;;4966483;28;20124;-64
2021/12/11 08:49:47;;;;;;;2.70;2.50;;;1.80;99.90;;;;;;4976579;28;20041;-64
2021/12/11 08:52:19;;;;;;;2.35;1.95;;;1.80;99.90;;;;;;4942089;28;20055;-64
2021/12/11 08:54:46;;;;;;;2.83;2.28;;;1.80;99.90;;;;;;4969289;28;20042;-64
2021/12/11 08:57:14;;;;;;;2.22;1.98;;;1.80;99.90;;;;;;4964482;28;20038;-64
2021/12/11 08:59:44;;;;;;;2.90;2.70;;;1.80;99.90;;;;;;4967615;28;20085;-64
2021/12/11 09:02:18;;;;;;;2.83;2.50;;;1.80;99.90;;;;;;4962634;28;20082;-64
2021/12/11 09:05:08;;;;;;;2.33;2.17;;;1.80;99.90;;;;;;4964594;28;20051;-64
2021/12/11 09:08:03;;;;;;;3.95;3.45;;;1.90;99.90;;;;;;4963401;28;20393;-64
2021/12/11 09:10:54;;;;;;;2.47;2.28;;;1.90;99.90;;;;;;4959385;28;20042;-64
2021/12/11 09:13:54;;;;;;;3.08;2.50;;;1.90;99.90;;;;;;4965696;28;20042;-64
2021/12/11 09:16:29;;;;;;;2.58;2.38;;;1.90;99.90;;;;;;4940091;28;20047;-64
2021/12/11 09:19:20;;;;;;;3.33;2.22;;;1.90;99.90;;;;;;4973956;28;20113;-64
2021/12/11 09:21:49;;;;;;;1.85;1.75;;;1.90;99.90;;;;;;4969547;28;20032;-64
2021/12/11 09:24:28;;;;;;;6.30;2.63;;;1.90;99.90;;;;;;4967679;28;20034;-64
2021/12/11 09:27:14;;;;;;;2.55;2.30;;;1.90;99.90;;;;;;4961245;28;20034;-64
2021/12/11 09:29:43;;;;;;;2.15;2.03;;;1.90;99.90;;;;;;4962529;28;20434;-64
2021/12/11 09:32:18;;;;;;;2.80;2.47;;;1.80;99.90;;;;;;4961995;28;20054;-64
2021/12/11 09:34:58;;;;;;;3.22;2.75;;;1.90;99.90;;;;;;4961116;28;20035;-64
2021/12/11 09:37:26;;;;;;;5.38;3.20;;;1.90;99.90;;;;;;4965465;28;20038;-64
2021/12/11 09:39:56;;;;;;;2.63;2.42;;;1.90;99.90;;;;;;4970194;28;20038;-64
2021/12/11 09:42:22;;;;;;;3.95;3.35;;;1.90;99.90;;;;;;4965798;28;20054;-64
2021/12/11 09:44:58;;;;;;;4.88;3.10;;;1.90;99.90;;;;;;4963386;28;20666;-64
2021/12/11 09:47:34;;;;;;;3.47;2.65;;;1.90;99.90;;;;;;4964169;28;20030;-64
2021/12/11 09:50:09;;;;;;;2.50;2.22;;;1.90;99.90;;;;;;4966665;28;20037;-64
2021/12/11 09:52:37;;;;;;;2.90;2.58;;;1.90;99.90;;;;;;4964345;28;20148;-64
2021/12/11 09:55:19;;;;;;;3.10;2.63;;;1.90;99.90;;;;;;4957796;28;20026;-64
2021/12/11 09:57:49;;;;;;;2.63;1.92;;;1.90;99.90;;;;;;4959032;28;20082;-63
2021/12/11 10:00:31;;;;;;;2.90;2.58;;;2.00;99.90;;;;;;4957945;28;20043;-63
2021/12/11 10:02:57;;;;;;;4.88;2.70;;;2.00;99.90;;;;;;4961111;28;20058;-64
2021/12/11 10:05:32;;;;;;;5.10;2.90;;;2.00;99.90;;;;;;4960806;28;20445;-64
2021/12/11 10:10:48;;;;;;;2.63;1.92;;;2.00;99.90;;;;;;4964497;28;20030;-64
2021/12/11 10:13:14;;;;;;;2.65;2.42;;;2.10;99.90;;;;;;4962474;28;20039;-63
2021/12/11 10:15:41;;;;;;;3.25;2.95;;;2.10;99.90;;;;;;4960711;28;20421;-63
2021/12/11 10:18:19;;;;;;;3.42;3.03;;;2.10;99.90;;;;;;4965892;28;20129;-63
2021/12/11 10:21:11;;;;;;;2.33;2.13;;;2.10;99.90;;;;;;4964406;28;20122;-64
2021/12/11 10:23:38;;;;;;;3.03;2.58;;;2.10;99.90;;;;;;4953011;28;20150;-64
2021/12/11 10:26:10;;;;;;;13.05;3.53;;;2.10;99.90;;;;;;4958401;28;20027;-64
2021/12/11 10:28:38;;;;;;;3.53;2.88;;;2.10;99.90;;;;;;4960869;28;20042;-64
2021/12/11 10:31:14;;;;;;;2.90;2.65;;;2.20;99.90;;;;;;4961470;28;20030;-64
2021/12/11 10:33:40;;;;;;;2.58;2.38;;;2.20;99.90;;;;;;4966045;28;20042;-64
2021/12/11 10:36:10;;;;;;;3.38;2.67;;;2.20;99.90;;;;;;4936028;28;20401;-63
2021/12/11 10:38:38;;;;;;;7.93;2.72;;;2.20;99.90;;;;;;4958915;28;20097;-64
2021/12/11 10:41:07;;;;;;;4.43;3.00;;;2.20;99.90;;;;;;4960842;28;20027;-64
2021/12/11 10:43:35;;;;;;;;;;;2.20;99.90;;;;;;4958460;28;20035;-64
2021/12/11 10:46:04;;;;;;;2.60;2.40;;;2.30;99.90;;;;;;4960157;28;20660;-64
2021/12/11 10:48:33;;;;;;;3.15;2.65;;;2.30;99.90;;;;;;4957496;28;20089;-64
2021/12/11 10:51:04;;;;;;;4.22;2.78;;;2.30;99.90;;;;;;4957565;28;20041;-63
2021/12/11 10:53:31;;;;;;;7.03;3.15;;;2.30;99.90;;;;;;4961690;28;20491;-63
2021/12/11 10:56:00;;;;;;;3.17;2.72;;;2.30;99.90;;;;;;4961526;28;20110;-63
2021/12/11 10:58:30;;;;;;;4.55;3.08;;;2.30;99.90;;;;;;4957844;28;20037;-63
2021/12/11 11:01:04;;;;;;;3.72;3.20;;;2.30;99.90;;;;;;4961566;28;20555;-64
2021/12/11 11:03:35;;;;;;;3.45;3.08;;;2.30;99.90;;;;;;4956900;28;20453;-64
2021/12/11 11:06:03;;;;;;;3.63;2.90;;;2.20;99.90;;;;;;4965316;28;20026;-64
2021/12/11 11:08:29;;;;;;;3.20;2.90;;;2.30;99.90;;;;;;4957517;28;20042;-64
2021/12/11 11:11:05;;;;;;;3.90;3.60;;;2.30;99.90;;;;;;4961804;28;20043;-63
2021/12/11 11:13:31;;;;;;;3.22;2.92;;;2.30;99.90;;;;;;4960211;28;20116;-63
2021/12/11 11:15:57;;;;;;;3.30;2.83;;;2.30;99.90;;;;;;4957184;28;20053;-63
2021/12/11 11:18:25;;;;;;;4.85;3.70;;;2.30;99.90;;;;;;4959688;28;20072;-63
2021/12/11 11:20:56;;;;;;;3.20;2.90;;;2.30;99.90;;;;;;4959489;28;20073;-64
2021/12/11 11:23:23;;;;;;;4.10;3.05;;;2.30;99.90;;;;;;4960542;28;20086;-63
2021/12/11 11:25:52;;;;;;;3.50;3.20;;;2.30;99.90;;;;;;4959139;28;20070;-63
2021/12/11 11:28:21;;;;;;;4.35;3.83;;;2.30;99.90;;;;;;4960153;28;20488;-64
2021/12/11 11:31:13;;;;;;;3.60;3.03;;;2.20;99.90;;;;;;4960333;28;20038;-63
2021/12/11 11:33:41;;;;;;;4.57;3.13;;;2.20;99.90;;;;;;4961578;28;20038;-64
2021/12/11 11:36:10;;;;;;;3.22;2.92;;;2.30;99.90;;;;;;4957131;28;20066;-63
2021/12/11 11:38:41;;;;;;;5.03;3.20;;;2.20;99.90;;;;;;4956581;28;21560;-64
2021/12/11 11:41:11;;;;;;;3.90;3.55;;;2.20;99.90;;;;;;4959982;28;20856;-63
2021/12/11 11:43:38;;;;;;;6.57;4.00;;;2.20;99.90;;;;;;4959827;28;20035;-63
2021/12/11 11:46:06;;;;;;;5.50;4.20;;;2.20;99.90;;;;;;4962957;28;20042;-64
2021/12/11 11:48:37;;;;;;;5.00;3.88;;;2.20;99.90;;;;;;4960435;28;20381;-64
2021/12/11 11:51:08;;;;;;;5.78;4.05;;;2.20;99.90;;;;;;4955930;28;20038;-64
2021/12/11 11:53:34;;;;;;;7.18;4.07;;;2.20;99.90;;;;;;4963737;28;20499;-64
2021/12/11 11:56:04;;;;;;;4.45;3.47;;;2.20;99.90;;;;;;4967397;28;20030;-64
2021/12/11 11:58:31;;;;;;;8.35;3.90;;;2.20;99.90;;;;;;4963733;28;20037;-64
2021/12/11 12:01:07;;;;;;;6.88;4.05;;;2.30;99.90;;;;;;4985279;23;20414;-85
2021/12/11 12:03:35;;;;;;;6.50;3.92;;;2.20;99.90;;;;;;4957724;28;20109;-85
2021/12/11 12:06:04;;;;;;;5.55;3.90;;;2.20;99.90;;;;;;4960432;28;20081;-85
2021/12/11 12:08:30;;;;;;;5.28;4.10;;;2.20;99.90;;;;;;4972587;28;20054;-85
2021/12/11 12:10:57;;;;;;;5.35;4.05;;;2.20;99.90;;;;;;4964468;28;20050;-87
2021/12/11 12:13:26;;;;;;;7.00;4.85;;;2.20;99.90;;;;;;4981622;28;20486;-86
2021/12/11 12:15:58;;;;;;;7.90;4.78;;;2.20;99.90;;;;;;4979126;28;20029;-86
2021/12/11 12:18:27;;;;;;;6.88;4.90;;;2.20;99.90;;;;;;4984281;28;20458;-86
2021/12/11 12:20:54;;;;;;;5.28;4.47;;;2.20;99.90;;;;;;4970790;28;20030;-87
2021/12/11 12:23:20;;;;;;;8.18;5.75;;;2.20;99.90;;;;;;4972458;28;20076;-86
2021/12/11 12:25:49;;;;;;;7.18;4.97;;;2.20;99.90;;;;;;4971248;28;20723;-87
2021/12/11 12:28:15;;;;;;;7.55;4.97;;;2.20;99.90;;;;;;4984260;28;20030;-87
2021/12/11 12:30:55;;;;;;;7.68;4.93;;;2.20;99.90;;;;;;4965114;28;20069;-87
2021/12/11 12:33:21;;;;;;;8.70;5.47;;;2.20;99.90;;;;;;4968783;28;20423;-87
2021/12/11 12:35:48;;;;;;;8.77;5.32;;;2.20;99.90;;;;;;4968752;28;21761;-86
2021/12/11 12:38:18;;;;;;;7.72;5.70;;;2.20;99.90;;;;;;4971717;28;20061;-87
2021/12/11 12:40:59;;;;;;;8.90;5.80;;;2.20;99.90;;;;;;4962681;28;20038;-86
2021/12/11 12:46:28;;;;;;;8.18;5.65;;;2.30;99.90;;;;;;4962704;28;20149;-87
2021/12/11 12:48:54;;;;;;;8.27;5.72;;;2.20;99.90;;;;;;4963169;28;20057;-86
2021/12/11 12:51:20;;;;;;;7.85;5.60;;;2.30;99.90;;;;;;4966108;28;20035;-86
2021/12/11 12:53:47;;;;;;;7.75;5.00;;;2.30;99.90;;;;;;4990712;28;20018;-86
2021/12/11 12:56:19;;;;;;;11.68;6.05;;;2.30;99.90;;;;;;4973707;28;20790;-87
2021/12/11 12:58:48;;;;;;;12.85;6.78;;;2.30;99.90;;;;;;4972583;28;20594;-86
2021/12/11 13:01:23;;;;;;;10.90;5.88;;;2.30;99.90;;;;;;4968384;28;20046;-86
2021/12/11 13:03:52;;;;;;;9.32;6.50;;;2.30;99.90;;;;;;4972109;28;20026;-87
2021/12/11 13:06:23;;;;;;;;;;;2.30;99.90;;;;;;4964644;28;20089;-87
2021/12/11 13:08:59;;;;;;;12.25;7.07;;;2.30;99.90;;;;;;4987198;28;20004;-87
2021/12/11 13:11:33;;;;;;;12.02;6.57;;;2.30;99.90;;;;;;4966309;28;20022;-86
2021/12/11 13:14:00;;;;;;;10.10;6.80;;;2.30;99.90;;;;;;4971484;28;20026;-87
2021/12/11 13:16:30;;;;;;;10.82;6.60;;;2.30;99.90;;;;;;4990762;28;20030;-86
2021/12/11 13:19:19;;;;;;;14.13;7.03;;;2.30;99.90;;;;;;4970052;28;21795;-86
2021/12/11 13:22:18;;;;;;;11.50;7.38;;;2.30;99.90;;;;;;4968956;28;20026;-86
2021/12/11 13:24:52;;;;;;;9.65;6.30;;;2.30;99.90;;;;;;4947200;28;20089;-86
2021/12/11 13:27:22;;;;;;;12.32;6.47;;;2.30;99.90;;;;;;4968065;28;20038;-87
2021/12/11 13:29:53;;;;;;;8.15;5.80;;;2.30;99.90;;;;;;4962024;28;20026;-86
2021/12/11 13:32:31;;;;;;;12.68;7.97;;;2.30;99.90;;;;;;4967911;28;20040;-86